Seabourn Quest — C6YZ5 — position and weather

sailwx.info

Track history (hours):
 
Tides and Currents Weather Stations Pressure Air Temp Water Temp Dewpoint Dewpoint Depression Visibility Wind Speed Wind Dir Waves Ship Positions

Seabourn Quest

Last reported at 2019-Sep-16 06:00 UTC. Time now 2019-Sep-17 08:24 UTC.
Position N 46°30' W 061°48'.

Length 197 m; draft 6.7 m.

Type: Passenger vessel. MMSI: 311038900.

Wind from 250 at 15 knots

Barometer 1008.1 mb
Air temperature 15.4 ° C
Visibility: greater than 10.8 NM
Dewpoint 15.4 ° C
Water temperature 14.0 ° C

Date/timePositionNaut miles runAvg speedWind from/ knotsBaromVisibWave heightAir tempDewpointWater temp
2019-Sep-16 06:00N 46°30' W 061°48'44 1.8 250 / 151008.110.8 15.415.414.0
2019-Sep-15 06:00N 45°54' W 062°24'7913.2 190 / 291019.210.8 16.016.015.0
2019-Sep-15 00:00N 46°48' W 061°00'6110.2 170 / 281021.810.8 14.2
2019-Sep-14 18:00N 46°18' W 059°42'6911.5 170 / 121027.010.8 16.6
2019-Sep-14 12:00N 45°18' W 060°30'13615.0 310 / 71028.2 5.4 14.0 16.0
2019-Sep-14 02:55N 44°32' W 063°31'513.2
2019-Sep-14 02:30N 44°37' W 063°33'1 2.0
2019-Sep-14 01:59N 44°38' W 063°34'0 0.0
2019-Sep-14 01:29N 44°38' W 063°34'0 0.0
2019-Sep-14 00:58N 44°38' W 063°34'0 0.0
2019-Sep-14 00:30N 44°38' W 063°34'0 0.0
2019-Sep-13 23:59N 44°38' W 063°34'0 0.0
2019-Sep-13 23:28N 44°38' W 063°34'0 0.0
2019-Sep-13 23:01N 44°38' W 063°34'0 0.0
2019-Sep-13 22:31N 44°38' W 063°34'0 0.0
2019-Sep-13 22:00N 44°38' W 063°34'0 0.0
2019-Sep-13 21:30N 44°38' W 063°34'0 0.0
2019-Sep-13 20:59N 44°38' W 063°34'0 0.0
2019-Sep-13 20:29N 44°38' W 063°34'0 0.0
2019-Sep-13 19:59N 44°38' W 063°34'0 0.0
2019-Sep-13 19:29N 44°38' W 063°34'0 0.0
2019-Sep-13 18:59N 44°38' W 063°34'0 0.0
2019-Sep-13 18:29N 44°38' W 063°34'0 0.0
2019-Sep-13 17:59N 44°38' W 063°34'0 0.0
2019-Sep-13 17:29N 44°38' W 063°34'0 0.0
2019-Sep-13 16:59N 44°38' W 063°34'0 0.0
2019-Sep-13 16:29N 44°38' W 063°34'0 0.0
2019-Sep-13 15:59N 44°38' W 063°34'0 0.0
2019-Sep-13 15:29N 44°38' W 063°34'0 0.0
2019-Sep-13 14:59N 44°38' W 063°34'0 0.0
2019-Sep-13 14:28N 44°38' W 063°34'0 0.0
2019-Sep-13 13:58N 44°38' W 063°34'0 1.0
2019-Sep-13 13:30N 44°38' W 063°33'612.7
2019-Sep-13 13:01N 44°32' W 063°31'1314.4
2019-Sep-13 12:07N 44°20' W 063°23'15913.1
2019-Sep-13 00:00N 43°48' W 067°00'174 5.8 030 / 111023.010.8 13.5 14.5
2019-Sep-11 18:00N 42°00' W 070°06'0 0.0 220 / 251016.210.8 22.017.219.0
2019-Sep-11 14:00N 42°00' W 070°06'39 2.5 210 / 231020.210.8 21.014.2
2019-Sep-10 22:30N 42°22' W 070°49'2 0.1
2019-Sep-10 09:01N 42°24' W 070°50'011.2
2019-Sep-10 09:00N 42°24' W 070°50'1112.1
2019-Sep-10 08:07N 42°30' W 070°38'188 7.2
2019-Sep-09 06:00N 44°12' W 067°00'50 8.3 300 / 171019.210.8 13.0
2019-Sep-09 00:00N 44°48' W 066°12'25 2.1 250 / 161016.210.8 12.0
2019-Sep-08 12:00N 45°12' W 066°00'0 0.0 270 / 181005.1 5.4 10.0 15.0
2019-Sep-08 06:00N 45°12' W 066°00'112 3.7 300 / 25991.910.8 8.0 0.6
2019-Sep-07 00:00N 43°30' W 064°54'8617.1 100 / 201016.310.8 18.4 19.0
2019-Sep-06 18:58N 44°32' W 063°31'612.5
2019-Sep-06 18:30N 44°38' W 063°33'1 2.0
2019-Sep-06 17:59N 44°38' W 063°34'0 0.0
2019-Sep-06 17:29N 44°38' W 063°34'0 0.0
2019-Sep-06 16:59N 44°38' W 063°34'0 0.0
2019-Sep-06 16:29N 44°38' W 063°34'0 0.0
2019-Sep-06 16:00N 44°38' W 063°34'0 0.0
2019-Sep-06 15:28N 44°38' W 063°34'0 0.0
2019-Sep-06 14:58N 44°38' W 063°34'0 0.0
2019-Sep-06 14:28N 44°38' W 063°34'0 0.0
2019-Sep-06 14:00N 44°38' W 063°34'0 0.0
2019-Sep-06 13:30N 44°38' W 063°34'0 0.0
2019-Sep-06 13:00N 44°38' W 063°34'0 0.0
2019-Sep-06 12:30N 44°38' W 063°34'0 0.0
2019-Sep-06 11:58N 44°38' W 063°34'0 0.0
2019-Sep-06 11:26N 44°38' W 063°34'0 0.0
2019-Sep-06 11:00N 44°38' W 063°34'2 3.1
2019-Sep-06 10:30N 44°37' W 063°33'510.2
2019-Sep-06 10:00N 44°32' W 063°31'611.2
2019-Sep-06 09:30N 44°28' W 063°26'5 9.4
2019-Sep-06 09:00N 44°28' W 063°20'5 9.4
2019-Sep-06 08:30N 44°28' W 063°13'5 9.3
2019-Sep-06 08:00N 44°29' W 063°07'5 9.5
2019-Sep-06 07:29N 44°31' W 063°00'8 9.4
2019-Sep-06 06:41N 44°33' W 062°50'  
Track history (hours):
 
Tides and Currents Weather Stations Pressure Air Temp Water Temp Dewpoint Dewpoint Depression Visibility Wind Speed Wind Dir Waves Ship Positions

Seabourn Quest

Last reported at 2019-Sep-16 06:00 UTC. Time now 2019-Sep-17 08:24 UTC.
Position N 46°30' W 061°48'.

Length 197 m; draft 6.7 m.

Type: Passenger vessel. MMSI: 311038900.

Wind from 250 at 15 knots

Barometer 1008.1 mb
Air temperature 15.4 ° C
Visibility: greater than 10.8 NM
Dewpoint 15.4 ° C
Water temperature 14.0 ° C

Date/timePositionNaut miles runAvg speedWind from/ knotsBaromVisibWave heightAir tempDewpointWater temp
2019-Sep-16 06:00N 46°30' W 061°48'44 1.8 250 / 151008.110.8 15.415.414.0
2019-Sep-15 06:00N 45°54' W 062°24'7913.2 190 / 291019.210.8 16.016.015.0
2019-Sep-15 00:00N 46°48' W 061°00'6110.2 170 / 281021.810.8 14.2
2019-Sep-14 18:00N 46°18' W 059°42'6911.5 170 / 121027.010.8 16.6
2019-Sep-14 12:00N 45°18' W 060°30'13615.0 310 / 71028.2 5.4 14.0 16.0
2019-Sep-14 02:55N 44°32' W 063°31'513.2
2019-Sep-14 02:30N 44°37' W 063°33'1 2.0
2019-Sep-14 01:59N 44°38' W 063°34'0 0.0
2019-Sep-14 01:29N 44°38' W 063°34'0 0.0
2019-Sep-14 00:58N 44°38' W 063°34'0 0.0
2019-Sep-14 00:30N 44°38' W 063°34'0 0.0
2019-Sep-13 23:59N 44°38' W 063°34'0 0.0
2019-Sep-13 23:28N 44°38' W 063°34'0 0.0
2019-Sep-13 23:01N 44°38' W 063°34'0 0.0
2019-Sep-13 22:31N 44°38' W 063°34'0 0.0
2019-Sep-13 22:00N 44°38' W 063°34'0 0.0
2019-Sep-13 21:30N 44°38' W 063°34'0 0.0
2019-Sep-13 20:59N 44°38' W 063°34'0 0.0
2019-Sep-13 20:29N 44°38' W 063°34'0 0.0
2019-Sep-13 19:59N 44°38' W 063°34'0 0.0
2019-Sep-13 19:29N 44°38' W 063°34'0 0.0
2019-Sep-13 18:59N 44°38' W 063°34'0 0.0
2019-Sep-13 18:29N 44°38' W 063°34'0 0.0
2019-Sep-13 17:59N 44°38' W 063°34'0 0.0
2019-Sep-13 17:29N 44°38' W 063°34'0 0.0
2019-Sep-13 16:59N 44°38' W 063°34'0 0.0
2019-Sep-13 16:29N 44°38' W 063°34'0 0.0
2019-Sep-13 15:59N 44°38' W 063°34'0 0.0
2019-Sep-13 15:29N 44°38' W 063°34'0 0.0
2019-Sep-13 14:59N 44°38' W 063°34'0 0.0
2019-Sep-13 14:28N 44°38' W 063°34'0 0.0
2019-Sep-13 13:58N 44°38' W 063°34'0 1.0
2019-Sep-13 13:30N 44°38' W 063°33'612.7
2019-Sep-13 13:01N 44°32' W 063°31'1314.4
2019-Sep-13 12:07N 44°20' W 063°23'15913.1
2019-Sep-13 00:00N 43°48' W 067°00'174 5.8 030 / 111023.010.8 13.5 14.5
2019-Sep-11 18:00N 42°00' W 070°06'0 0.0 220 / 251016.210.8 22.017.219.0
2019-Sep-11 14:00N 42°00' W 070°06'39 2.5 210 / 231020.210.8 21.014.2
2019-Sep-10 22:30N 42°22' W 070°49'2 0.1
2019-Sep-10 09:01N 42°24' W 070°50'011.2
2019-Sep-10 09:00N 42°24' W 070°50'1112.1
2019-Sep-10 08:07N 42°30' W 070°38'188 7.2
2019-Sep-09 06:00N 44°12' W 067°00'50 8.3 300 / 171019.210.8 13.0
2019-Sep-09 00:00N 44°48' W 066°12'25 2.1 250 / 161016.210.8 12.0
2019-Sep-08 12:00N 45°12' W 066°00'0 0.0 270 / 181005.1 5.4 10.0 15.0
2019-Sep-08 06:00N 45°12' W 066°00'112 3.7 300 / 25991.910.8 8.0 0.6
2019-Sep-07 00:00N 43°30' W 064°54'8617.1 100 / 201016.310.8 18.4 19.0
2019-Sep-06 18:58N 44°32' W 063°31'612.5
2019-Sep-06 18:30N 44°38' W 063°33'1 2.0
2019-Sep-06 17:59N 44°38' W 063°34'0 0.0
2019-Sep-06 17:29N 44°38' W 063°34'0 0.0
2019-Sep-06 16:59N 44°38' W 063°34'0 0.0
2019-Sep-06 16:29N 44°38' W 063°34'0 0.0
2019-Sep-06 16:00N 44°38' W 063°34'0 0.0
2019-Sep-06 15:28N 44°38' W 063°34'0 0.0
2019-Sep-06 14:58N 44°38' W 063°34'0 0.0
2019-Sep-06 14:28N 44°38' W 063°34'0 0.0
2019-Sep-06 14:00N 44°38' W 063°34'0 0.0
2019-Sep-06 13:30N 44°38' W 063°34'0 0.0
2019-Sep-06 13:00N 44°38' W 063°34'0 0.0
2019-Sep-06 12:30N 44°38' W 063°34'0 0.0
2019-Sep-06 11:58N 44°38' W 063°34'0 0.0
2019-Sep-06 11:26N 44°38' W 063°34'0 0.0
2019-Sep-06 11:00N 44°38' W 063°34'2 3.1
2019-Sep-06 10:30N 44°37' W 063°33'510.2
2019-Sep-06 10:00N 44°32' W 063°31'611.2
2019-Sep-06 09:30N 44°28' W 063°26'5 9.4
2019-Sep-06 09:00N 44°28' W 063°20'5 9.4
2019-Sep-06 08:30N 44°28' W 063°13'5 9.3
2019-Sep-06 08:00N 44°29' W 063°07'5 9.5
2019-Sep-06 07:29N 44°31' W 063°00'8 9.4
2019-Sep-06 06:41N 44°33' W 062°50'  

Dump ship's entire track history